Time;durP1;ratioP1;P1;durP2;ratioP2;P2;SDS_P1;SDS_P2;PMS_P1;PMS_P2;Temp;Humidity;BMP_temperature;BMP_pressure;BME280_temperature;BME280_humidity;BME280_pressure;Samples;Min_cycle;Max_cycle;Signal;HPM_P1;HPM_P2
2023/04/13 00:01:10;;;;;;;2.30;0.70;;;6.00;99.90;;;5.20;100.00;96367.09;4998879;28;20088;-68
2023/04/13 00:03:39;;;;;;;4.43;0.73;;;6.00;99.90;;;5.14;100.00;96357.06;5003531;28;20041;-67
2023/04/13 00:06:09;;;;;;;2.22;0.70;;;6.10;99.90;;;5.17;100.00;96374.09;5005998;28;20088;-67
2023/04/13 00:08:37;;;;;;;1.55;0.50;;;6.10;99.90;;;5.16;100.00;96370.69;5002969;28;20042;-67
2023/04/13 00:11:06;;;;;;;5.68;0.70;;;6.00;99.90;;;5.08;100.00;96366.75;5005558;28;20054;-67
2023/04/13 00:13:39;;;;;;;4.43;0.80;;;6.00;99.90;;;4.98;100.00;96356.00;5004292;28;20175;-68
2023/04/13 00:16:11;;;;;;;3.25;0.77;;;6.00;99.90;;;5.02;100.00;96363.53;5002831;28;20056;-66
2023/04/13 00:18:38;;;;;;;3.40;0.50;;;5.90;99.90;;;4.93;100.00;96348.47;5004399;28;20056;-67
2023/04/13 00:21:06;;;;;;;3.90;0.70;;;5.90;99.90;;;4.91;100.00;96349.44;5005878;28;20053;-67
2023/04/13 00:23:37;;;;;;;4.20;0.70;;;5.90;99.90;;;4.85;100.00;96341.97;5002012;28;20053;-67
2023/04/13 00:26:04;;;;;;;6.60;0.70;;;5.90;99.90;;;4.89;100.00;96341.78;5002454;28;20062;-68
2023/04/13 00:28:32;;;;;;;5.88;0.80;;;5.90;99.90;;;4.88;100.00;96341.81;5004184;28;20138;-67
2023/04/13 00:30:59;;;;;;;5.40;0.90;;;5.80;99.90;;;4.85;100.00;96329.09;5002499;28;20140;-67
2023/04/13 00:33:26;;;;;;;4.55;0.80;;;5.80;99.90;;;5.00;100.00;96344.75;5003985;28;20057;-67
2023/04/13 00:35:52;;;;;;;9.20;1.13;;;5.90;99.90;;;4.97;100.00;96336.31;5001998;28;20050;-68
2023/04/13 00:38:19;;;;;;;4.70;0.90;;;5.90;99.90;;;4.98;100.00;96343.16;5000947;28;20058;-67
2023/04/13 00:40:46;;;;;;;4.68;0.82;;;5.90;99.90;;;4.99;100.00;96332.78;4997328;28;20053;-68
2023/04/13 00:43:15;;;;;;;12.95;1.00;;;5.90;99.90;;;4.88;100.00;96301.53;4997665;28;20521;-67
2023/04/13 00:45:41;;;;;;;5.20;0.70;;;5.90;99.90;;;4.96;100.00;96320.06;4997353;28;20105;-67
2023/04/13 00:48:09;;;;;;;3.90;0.68;;;5.90;99.90;;;4.85;100.00;96306.78;5004040;28;20049;-67
2023/04/13 00:50:38;;;;;;;8.52;0.68;;;5.90;99.90;;;4.84;100.00;96302.56;4998172;28;20131;-67
2023/04/13 00:53:06;;;;;;;5.97;1.00;;;5.90;99.90;;;4.86;100.00;96326.47;5002756;28;20050;-67
2023/04/13 00:55:39;;;;;;;4.82;0.65;;;5.80;99.90;;;4.80;100.00;96322.41;5005164;28;20049;-67
2023/04/13 00:58:06;;;;;;;8.57;0.80;;;5.70;99.90;;;4.71;100.00;96309.91;5001568;28;20060;-67
2023/04/13 01:00:37;;;;;;;6.22;0.90;;;5.80;99.90;;;4.67;100.00;96322.94;5001750;28;20228;-67
2023/04/13 01:03:05;;;;;;;6.30;1.00;;;5.70;99.90;;;4.67;100.00;96325.53;5001780;28;20050;-67
2023/04/13 01:06:04;;;;;;;4.95;0.85;;;5.70;99.90;;;4.73;100.00;96322.72;5003348;28;20060;-67
2023/04/13 01:08:47;;;;;;;4.25;0.90;;;5.70;99.90;;;4.82;100.00;96335.22;5002685;28;20053;-67
2023/04/13 01:11:23;;;;;;;;;;;5.70;99.90;;;4.86;100.00;96331.63;5003239;28;20073;-67
2023/04/13 01:14:06;;;;;;;6.28;0.98;;;5.80;99.90;;;4.76;100.00;96325.16;5008807;28;19925;-67
2023/04/13 01:16:42;;;;;;;;;;;5.80;99.90;;;4.78;100.00;96316.47;5005275;28;20828;-67
2023/04/13 01:20:09;;;;;;;4.72;0.70;;;5.80;99.90;;;4.84;100.00;96332.59;5004015;28;19932;-67
2023/04/13 01:22:41;;;;;;;4.95;0.70;;;5.80;99.90;;;4.84;100.00;96300.00;5003196;28;20050;-67
2023/04/13 01:25:49;;;;;;;5.03;0.97;;;5.80;99.90;;;4.88;100.00;96300.69;5003669;28;20127;-68
2023/04/13 01:28:18;;;;;;;8.02;0.88;;;5.80;99.90;;;4.89;100.00;96308.34;5003001;28;20536;-68
2023/04/13 01:30:46;;;;;;;3.97;0.77;;;5.90;99.90;;;4.96;100.00;96296.09;5001709;28;20046;-68
2023/04/13 01:33:13;;;;;;;5.38;0.80;;;5.80;99.90;;;4.99;100.00;96306.22;5004711;28;20137;-68
2023/04/13 01:35:41;;;;;;;4.25;0.60;;;5.90;99.90;;;5.02;100.00;96290.69;5022312;28;20085;-67
2023/04/13 01:38:09;;;;;;;5.35;0.80;;;5.90;99.90;;;5.02;100.00;96301.00;5004847;28;20076;-67
2023/04/13 01:40:40;;;;;;;7.28;0.80;;;6.00;99.90;;;5.02;100.00;96277.84;5006784;28;20057;-67
2023/04/13 01:43:07;;;;;;;3.58;0.85;;;5.90;99.90;;;5.06;100.00;96286.25;5003253;28;20447;-67
2023/04/13 01:45:59;;;;;;;7.40;1.08;;;5.90;99.90;;;5.11;100.00;96294.59;5004511;28;20101;-67
2023/04/13 01:48:35;;;;;;;6.38;0.70;;;5.90;99.90;;;5.05;100.00;96300.84;5002599;28;20054;-67
2023/04/13 01:51:18;;;;;;;6.10;0.70;;;5.90;99.90;;;5.08;100.00;96285.28;5003172;28;20514;-68
2023/04/13 01:54:26;;;;;;;4.93;0.85;;;5.90;99.90;;;5.12;100.00;96291.97;5003457;28;20072;-67
2023/04/13 01:56:56;;;;;;;5.43;0.80;;;6.00;99.90;;;5.20;100.00;96286.50;4945299;29;20051;-67
2023/04/13 01:59:23;;;;;;;6.72;0.85;;;6.00;99.90;;;5.29;100.00;96291.28;4997568;28;20050;-67
2023/04/13 02:01:50;;;;;;;5.15;1.00;;;6.10;99.90;;;5.20;100.00;96276.22;5003804;28;20060;-68
2023/04/13 02:04:17;;;;;;;5.18;0.65;;;6.10;99.90;;;5.20;100.00;96260.78;5005930;28;20482;-67
2023/04/13 02:06:45;;;;;;;9.00;0.93;;;6.20;99.90;;;5.34;100.00;96301.38;5008283;28;20107;-68
2023/04/13 02:09:12;;;;;;;7.30;0.90;;;6.10;99.90;;;5.26;100.00;96242.50;5002952;28;20046;-68
2023/04/13 02:11:39;;;;;;;6.35;1.08;;;6.10;99.90;;;5.35;100.00;96298.72;5004971;28;20042;-67
2023/04/13 02:14:08;;;;;;;7.82;0.93;;;6.20;99.90;;;5.31;100.00;96292.03;5004642;28;20053;-67
2023/04/13 02:16:35;;;;;;;4.95;0.80;;;6.20;99.90;;;5.24;100.00;96277.75;5004235;28;20053;-67
2023/04/13 02:19:02;;;;;;;6.57;0.90;;;6.20;99.90;;;5.30;100.00;96264.66;5006361;28;20056;-68
2023/04/13 02:21:29;;;;;;;9.07;1.00;;;6.20;99.90;;;5.32;100.00;96282.59;5005374;28;20058;-67
2023/04/13 02:23:56;;;;;;;8.13;1.13;;;6.20;99.90;;;5.30;100.00;96286.97;5002606;28;20119;-68
2023/04/13 02:26:24;;;;;;;5.70;0.70;;;6.30;99.90;;;5.31;100.00;96283.47;5005014;28;20053;-67
2023/04/13 02:28:52;;;;;;;8.18;1.20;;;6.20;99.90;;;5.27;100.00;96277.66;5004827;28;20057;-67
2023/04/13 02:31:22;;;;;;;4.03;0.90;;;6.20;99.90;;;5.36;100.00;96274.69;5005339;28;20100;-67
2023/04/13 02:33:50;;;;;;;5.10;0.95;;;6.20;99.90;;;5.28;100.00;96284.44;5003400;28;20529;-67
2023/04/13 02:36:18;;;;;;;5.65;0.90;;;6.20;99.90;;;5.39;100.00;96294.31;5002758;28;20104;-67
2023/04/13 02:38:45;;;;;;;5.97;1.20;;;6.20;99.90;;;5.30;100.00;96285.22;5005063;28;20049;-68
2023/04/13 02:41:12;;;;;;;6.63;0.90;;;6.20;99.90;;;5.31;100.00;96306.63;5006694;28;20478;-67
2023/04/13 02:43:39;;;;;;;7.47;1.00;;;6.10;99.90;;;5.22;100.00;96264.13;5001564;28;20046;-67
2023/04/13 02:46:07;;;;;;;4.75;1.00;;;6.10;99.90;;;5.26;100.00;96300.84;5002308;28;20055;-67
2023/04/13 02:48:35;;;;;;;8.85;0.90;;;6.10;99.90;;;5.23;100.00;96292.38;5005943;28;20050;-67
2023/04/13 02:51:02;;;;;;;8.00;0.93;;;6.10;99.90;;;5.31;100.00;96304.91;5003587;28;20112;-68
2023/04/13 02:53:29;;;;;;;5.20;1.00;;;6.10;99.90;;;5.24;100.00;96290.63;5004547;28;20352;-68
2023/04/13 02:55:56;;;;;;;7.68;1.13;;;6.10;99.90;;;5.12;100.00;96301.44;5002857;28;20692;-68
2023/04/13 02:58:24;;;;;;;7.35;1.00;;;6.10;99.90;;;5.18;100.00;96278.88;4997925;28;20046;-67
2023/04/13 03:00:51;;;;;;;8.57;1.10;;;6.10;99.90;;;5.12;100.00;96286.84;5003141;28;20058;-67
2023/04/13 03:03:19;;;;;;;6.95;1.10;;;6.00;99.90;;;5.02;100.00;96282.97;5002856;28;20570;-67
2023/04/13 03:05:49;;;;;;;10.57;1.10;;;6.00;99.90;;;5.14;100.00;96307.34;5004861;28;20056;-69
2023/04/13 03:08:16;;;;;;;6.78;1.15;;;6.00;99.90;;;5.00;100.00;96311.31;5001496;28;20416;-67
2023/04/13 03:10:43;;;;;;;11.25;1.23;;;5.90;99.90;;;5.06;100.00;96312.78;5004910;28;20620;-67
2023/04/13 03:13:10;;;;;;;5.65;1.15;;;5.90;99.90;;;5.10;100.00;96292.94;5001530;28;20050;-67
2023/04/13 03:15:39;;;;;;;6.45;1.00;;;5.90;99.90;;;5.07;100.00;96322.19;5004031;28;20056;-68
2023/04/13 03:18:07;;;;;;;12.65;1.52;;;5.80;99.90;;;5.01;100.00;96307.00;4997128;28;20058;-68
2023/04/13 03:20:35;;;;;;;13.48;2.75;;;5.90;99.90;;;5.03;100.00;96313.75;5002250;28;20069;-67
2023/04/13 03:23:03;;;;;;;4.82;0.80;;;5.90;99.90;;;4.97;100.00;96308.88;4997225;28;20375;-67
2023/04/13 03:25:30;;;;;;;8.13;1.45;;;5.90;99.90;;;5.06;100.00;96322.25;5002449;28;20050;-68
2023/04/13 03:27:59;;;;;;;8.70;1.40;;;5.90;99.90;;;5.10;100.00;96324.63;5001716;28;20074;-68
2023/04/13 03:30:26;;;;;;;6.57;0.80;;;5.80;99.90;;;5.06;100.00;96302.50;5002483;28;20137;-68
2023/04/13 03:32:54;;;;;;;13.88;1.58;;;5.90;99.90;;;4.95;100.00;96294.41;5003447;28;20092;-67
2023/04/13 03:35:21;;;;;;;10.40;1.55;;;5.90;99.90;;;4.93;100.00;96317.63;5004482;28;20050;-67
2023/04/13 03:37:48;;;;;;;10.77;1.42;;;5.90;99.90;;;5.03;100.00;96328.38;5001346;28;20073;-67
2023/04/13 03:40:15;;;;;;;11.75;1.70;;;5.90;99.90;;;4.90;100.00;96312.56;5004557;28;20050;-67
2023/04/13 03:42:42;;;;;;;14.88;2.05;;;5.80;99.90;;;4.93;100.00;96321.94;5005053;28;20046;-66
2023/04/13 03:45:09;;;;;;;9.15;1.77;;;5.90;99.90;;;4.85;100.00;96290.53;5002401;28;20058;-67
2023/04/13 03:47:38;;;;;;;12.40;2.50;;;5.80;99.90;;;4.94;100.00;96309.00;5002091;28;20061;-67
2023/04/13 03:50:06;;;;;;;11.48;1.80;;;5.90;99.90;;;4.92;100.00;96320.25;5005953;28;20073;-67
2023/04/13 03:52:33;;;;;;;8.52;1.60;;;5.80;99.90;;;4.86;100.00;96328.19;5003746;28;20050;-68
2023/04/13 03:55:00;;;;;;;9.57;1.05;;;5.80;99.90;;;4.86;100.00;96330.75;5001414;28;20042;-67
2023/04/13 03:57:28;;;;;;;8.13;1.60;;;5.80;99.90;;;4.92;100.00;96331.34;5004274;28;20050;-67
2023/04/13 03:59:55;;;;;;;7.82;1.30;;;5.80;99.90;;;4.92;100.00;96333.09;5003765;28;20077;-67
2023/04/13 04:02:22;;;;;;;11.35;1.42;;;5.80;99.90;;;4.90;100.00;96350.31;5002806;28;20060;-68
2023/04/13 04:04:49;;;;;;;5.43;1.50;;;5.80;99.90;;;4.91;100.00;96345.13;5002630;28;20049;-67
2023/04/13 04:07:21;;;;;;;8.45;1.58;;;5.70;99.90;;;4.86;100.00;96351.34;5019046;28;20108;-68
2023/04/13 04:09:49;;;;;;;9.52;1.35;;;5.70;99.90;;;4.79;100.00;96363.63;5004727;28;20061;-67
2023/04/13 04:12:19;;;;;;;13.40;1.67;;;5.80;99.90;;;4.80;100.00;96355.00;4999594;28;20514;-68
2023/04/13 04:14:45;;;;;;;11.88;1.70;;;5.80;99.90;;;4.86;100.00;96371.91;5005163;28;20065;-67
2023/04/13 04:17:12;;;;;;;9.45;1.52;;;5.80;99.90;;;4.84;100.00;96384.84;5003779;28;20070;-67
2023/04/13 04:19:39;;;;;;;12.35;1.65;;;5.80;99.90;;;4.76;100.00;96358.56;5001116;28;20054;-67
2023/04/13 04:22:06;;;;;;;13.32;2.20;;;5.80;99.90;;;4.84;100.00;96376.28;5002404;28;20066;-67
2023/04/13 04:24:34;;;;;;;8.63;1.55;;;5.70;99.90;;;4.86;100.00;96371.91;5005161;28;20053;-68
2023/04/13 04:27:01;;;;;;;9.68;1.85;;;5.70;99.90;;;4.77;100.00;96365.41;5000614;28;20077;-67
2023/04/13 04:29:34;;;;;;;15.85;3.28;;;5.60;99.90;;;4.79;100.00;96384.19;5004948;28;20065;-67
2023/04/13 04:32:02;;;;;;;8.63;1.38;;;5.60;99.90;;;4.83;100.00;96383.16;5005653;28;20060;-68
2023/04/13 04:34:30;;;;;;;12.73;1.90;;;5.60;99.90;;;4.68;100.00;96386.31;5003137;28;20054;-68
2023/04/13 04:36:57;;;;;;;11.05;1.75;;;5.60;99.90;;;4.58;100.00;96332.72;5003330;28;20050;-68
2023/04/13 04:39:31;;;;;;;13.68;2.08;;;5.60;99.90;;;4.59;100.00;96356.66;4998376;28;20050;-68
2023/04/13 04:42:02;;;;;;;12.25;2.53;;;5.50;99.90;;;4.62;100.00;96382.25;5002740;28;20710;-69
2023/04/13 04:44:32;;;;;;;16.30;2.88;;;5.50;99.90;;;4.55;100.00;96389.34;5005214;28;20085;-67
2023/04/13 04:46:59;;;;;;;7.05;1.42;;;5.40;99.90;;;4.53;100.00;96374.88;5004427;28;20140;-67
2023/04/13 04:49:27;;;;;;;9.20;2.03;;;5.40;99.90;;;4.48;100.00;96343.38;5007458;28;20216;-67
2023/04/13 04:51:56;;;;;;;8.40;1.17;;;5.40;99.90;;;4.40;100.00;96365.06;5011622;28;20503;-68
2023/04/13 04:54:23;;;;;;;12.48;1.80;;;5.40;99.90;;;4.42;100.00;96385.56;5003784;28;20049;-67
2023/04/13 04:56:53;;;;;;;10.88;2.13;;;5.40;99.90;;;4.36;100.00;96386.63;5004703;28;20056;-67
2023/04/13 04:59:20;;;;;;;11.23;2.00;;;5.30;99.90;;;4.56;100.00;96403.88;5004744;28;20429;-67
2023/04/13 05:01:48;;;;;;;15.05;1.73;;;5.30;99.90;;;4.65;100.00;96407.00;5005819;28;20081;-67
2023/04/13 05:04:15;;;;;;;13.43;1.95;;;5.30;99.90;;;4.53;100.00;96408.28;5005256;28;20080;-67
2023/04/13 05:06:43;;;;;;;16.27;2.75;;;5.40;99.90;;;4.56;100.00;96416.75;5005674;28;20060;-67
2023/04/13 05:09:10;;;;;;;18.13;2.17;;;5.40;99.90;;;4.59;100.00;96421.75;5004179;28;20054;-68
2023/04/13 05:11:37;;;;;;;18.05;2.38;;;5.40;99.90;;;4.52;100.00;96411.78;5005747;28;20411;-67
2023/04/13 05:14:05;;;;;;;11.00;1.70;;;5.40;99.90;;;4.59;100.00;96403.75;5007590;28;20042;-67
2023/04/13 05:16:33;;;;;;;17.10;2.55;;;5.40;99.90;;;4.57;100.00;96404.72;4991146;28;20134;-67
2023/04/13 05:19:00;;;;;;;14.65;2.10;;;5.50;99.90;;;4.65;100.00;96432.69;5007177;28;20073;-67
2023/04/13 05:21:27;;;;;;;15.23;1.80;;;5.40;99.90;;;4.67;100.00;96420.63;5007874;28;20077;-67
2023/04/13 05:23:55;;;;;;;14.60;2.50;;;5.60;99.90;;;4.78;100.00;96442.44;5005825;28;20045;-67
2023/04/13 05:26:24;;;;;;;17.38;2.20;;;5.50;99.90;;;4.87;100.00;96425.00;5005349;28;20137;-68
2023/04/13 05:28:51;;;;;;;15.85;1.95;;;5.50;99.90;;;4.74;100.00;96429.78;5003459;28;20050;-68
2023/04/13 05:31:18;;;;;;;12.93;2.22;;;5.50;99.90;;;4.71;100.00;96447.88;5006101;28;20383;-67
2023/04/13 05:33:45;;;;;;;16.65;2.13;;;5.50;99.90;;;4.66;100.00;96427.50;5006313;28;20580;-68
2023/04/13 05:36:13;;;;;;;18.00;3.00;;;5.50;99.90;;;4.54;100.00;96425.41;5004834;28;20546;-67
2023/04/13 05:38:40;;;;;;;16.40;2.63;;;5.50;99.90;;;4.43;100.00;96437.81;4999279;28;20050;-67
2023/04/13 05:41:09;;;;;;;16.40;2.78;;;5.50;99.90;;;4.50;100.00;96446.97;5001756;28;20126;-67
2023/04/13 05:43:36;;;;;;;12.82;2.17;;;5.50;99.90;;;4.49;100.00;96452.97;5007113;28;20402;-67
2023/04/13 05:46:03;;;;;;;19.48;2.20;;;5.40;99.90;;;4.48;100.00;96459.84;5004958;28;20057;-67
2023/04/13 05:48:30;;;;;;;17.13;2.45;;;5.40;99.90;;;4.48;100.00;96470.13;5006046;28;20050;-67
2023/04/13 05:51:00;;;;;;;12.65;2.55;;;5.30;99.90;;;4.48;100.00;96479.56;5005079;28;20129;-67
2023/04/13 05:53:27;;;;;;;17.45;2.08;;;5.40;99.90;;;4.45;100.00;96472.81;5002785;28;20058;-67
2023/04/13 05:55:54;;;;;;;18.63;3.42;;;5.40;99.90;;;4.53;100.00;96498.22;5004406;28;20057;-67
2023/04/13 05:58:21;;;;;;;10.45;1.63;;;5.40;99.90;;;4.40;100.00;96480.69;5002964;28;20123;-67
2023/04/13 06:00:49;;;;;;;18.75;2.95;;;5.40;99.90;;;4.47;100.00;96493.31;5001900;28;20053;-67
2023/04/13 06:03:16;;;;;;;15.43;2.10;;;5.40;99.90;;;4.45;100.00;96484.81;5003284;28;20057;-67
2023/04/13 06:05:43;;;;;;;12.15;2.15;;;5.40;99.90;;;4.49;100.00;96506.94;5006299;28;20058;-67
2023/04/13 06:08:10;;;;;;;20.65;3.03;;;5.40;99.90;;;4.37;100.00;96516.75;5003249;28;20064;-68
2023/04/13 06:10:38;;;;;;;19.35;2.70;;;5.40;99.90;;;4.43;100.00;96505.44;5002369;28;20249;-67
2023/04/13 06:13:05;;;;;;;21.08;3.22;;;5.40;99.90;;;4.36;100.00;96502.25;5003842;28;20592;-67
2023/04/13 06:15:34;;;;;;;17.83;2.22;;;5.40;99.90;;;4.48;100.00;96503.53;5005674;28;20061;-67
2023/04/13 06:18:01;;;;;;;10.05;2.10;;;5.30;99.90;;;4.44;100.00;96522.50;5005662;28;20105;-67
2023/04/13 06:20:30;;;;;;;18.67;3.00;;;5.40;99.90;;;4.39;100.00;96534.69;5003833;28;20060;-67
2023/04/13 06:22:57;;;;;;;18.77;3.15;;;5.40;99.90;;;4.39;100.00;96539.84;5006345;28;20507;-67
2023/04/13 06:25:24;;;;;;;19.98;3.15;;;5.30;99.90;;;4.42;100.00;96560.28;5004491;28;20061;-67
2023/04/13 06:27:52;;;;;;;13.07;2.78;;;5.30;99.90;;;4.52;100.00;96551.38;5002211;28;20053;-68
2023/04/13 06:30:19;;;;;;;16.55;2.38;;;5.30;99.90;;;4.42;100.00;96544.84;5002756;28;20535;-68
2023/04/13 06:32:46;;;;;;;12.55;2.72;;;5.40;99.90;;;4.50;100.00;96552.31;4985614;28;20053;-68
2023/04/13 06:35:14;;;;;;;14.45;2.60;;;5.30;99.90;;;4.43;100.00;96563.69;5003206;28;20060;-67
2023/04/13 06:37:41;;;;;;;16.63;2.72;;;5.30;99.90;;;4.46;100.00;96553.31;5006212;28;20557;-67
2023/04/13 06:40:11;;;;;;;16.85;3.60;;;5.40;99.90;;;4.46;100.00;96558.44;5004867;28;20057;-67
2023/04/13 06:42:40;;;;;;;16.45;3.63;;;5.40;99.90;;;4.42;100.00;96552.56;5003523;28;20085;-67
2023/04/13 06:45:11;;;;;;;15.07;3.33;;;5.40;99.90;;;4.42;100.00;96544.84;5005005;28;20064;-67
2023/04/13 06:47:41;;;;;;;14.63;3.00;;;5.40;99.90;;;4.57;100.00;96551.19;5005230;28;20065;-68
2023/04/13 06:50:12;;;;;;;17.25;2.83;;;5.50;99.90;;;4.66;100.00;96561.16;5006111;28;20108;-66
2023/04/13 06:52:45;;;;;;;14.27;2.92;;;5.50;99.90;;;4.65;100.00;96543.22;5004261;28;20164;-67
2023/04/13 06:55:13;;;;;;;16.13;2.67;;;5.50;99.90;;;4.77;100.00;96559.03;4999818;28;20092;-67
2023/04/13 06:57:40;;;;;;;20.50;4.13;;;5.50;99.90;;;4.67;100.00;96565.38;5001515;28;20056;-67
2023/04/13 07:00:09;;;;;;;21.05;3.55;;;5.50;99.90;;;4.66;100.00;96568.03;5002818;28;20450;-67
2023/04/13 07:02:54;;;;;;;11.35;2.47;;;5.50;99.90;;;4.77;100.00;96571.91;5002183;28;20045;-66
2023/04/13 07:05:21;;;;;;;14.82;2.80;;;5.50;99.90;;;4.68;100.00;96573.97;5005831;28;20088;-67
2023/04/13 07:07:48;;;;;;;18.00;3.03;;;5.60;99.90;;;4.76;100.00;96564.22;5001287;28;20057;-67
2023/04/13 07:10:15;;;;;;;12.50;2.80;;;5.50;99.90;;;4.80;100.00;96564.06;5001193;28;20045;-66
2023/04/13 07:12:42;;;;;;;22.02;3.05;;;5.50;99.90;;;4.86;100.00;96554.44;4998845;28;20490;-67
2023/04/13 07:15:09;;;;;;;21.92;3.10;;;5.60;99.90;;;4.81;100.00;96577.75;5001926;28;20050;-67
2023/04/13 07:17:36;;;;;;;17.17;2.50;;;5.60;99.90;;;4.92;100.00;96555.06;5004356;28;20403;-67
2023/04/13 07:20:06;;;;;;;16.90;3.28;;;5.70;99.90;;;4.93;100.00;96568.78;5005060;28;20054;-67
2023/04/13 07:22:34;;;;;;;21.30;3.60;;;5.70;99.90;;;5.05;100.00;96568.31;5002992;28;20440;-67
2023/04/13 07:25:01;;;;;;;22.45;3.17;;;5.80;99.90;;;5.21;100.00;96564.28;5000906;28;20049;-67
2023/04/13 07:27:28;;;;;;;15.05;2.97;;;5.90;99.90;;;5.24;100.00;96579.63;5000945;28;20141;-67
2023/04/13 07:29:55;;;;;;;15.23;2.65;;;5.90;99.90;;;5.41;100.00;96542.94;4986335;28;20042;-67
2023/04/13 07:32:22;;;;;;;19.77;3.30;;;6.00;99.90;;;5.29;100.00;96568.31;4994874;28;20390;-65
2023/04/13 07:35:00;;;;;;;20.90;3.10;;;6.00;99.90;;;5.21;100.00;96551.41;5003400;28;20046;-68
2023/04/13 07:37:27;;;;;;;16.73;3.10;;;6.10;99.90;;;5.02;100.00;96576.16;5005268;28;20235;-67
2023/04/13 07:39:54;;;;;;;17.98;3.58;;;6.10;99.90;;;5.08;100.00;96575.91;5005848;28;20080;-66
2023/04/13 07:42:21;;;;;;;21.40;3.38;;;6.00;99.90;;;5.08;100.00;96598.22;5003863;28;20054;-66
2023/04/13 07:44:47;;;;;;;25.98;3.20;;;5.90;99.90;;;5.06;100.00;96588.00;5001930;28;20050;-66
2023/04/13 07:47:15;;;;;;;11.85;2.17;;;5.90;99.90;;;4.98;100.00;96601.13;5003659;28;20058;-66
2023/04/13 07:49:42;;;;;;;14.68;2.63;;;5.80;99.90;;;4.95;100.00;96595.25;5003897;28;20116;-66
2023/04/13 07:52:09;;;;;;;12.43;2.50;;;5.90;99.90;;;4.99;100.00;96600.22;5002513;28;20730;-67
2023/04/13 07:54:36;;;;;;;14.73;2.53;;;5.80;99.90;;;4.95;100.00;96598.69;5004933;28;20045;-67
2023/04/13 07:57:04;;;;;;;10.07;2.03;;;5.80;99.90;;;5.10;100.00;96617.03;5005658;28;20052;-67
2023/04/13 07:59:31;;;;;;;14.02;2.05;;;5.90;99.90;;;5.15;100.00;96630.56;5004980;28;20080;-66
2023/04/13 08:01:58;;;;;;;15.05;2.33;;;5.90;99.90;;;4.98;100.00;96619.16;5000188;28;20065;-66
2023/04/13 08:04:25;;;;;;;12.43;1.88;;;5.90;99.90;;;4.88;100.00;96624.66;4999648;28;20108;-66
2023/04/13 08:06:52;;;;;;;13.15;2.38;;;5.90;99.90;;;4.79;100.00;96639.53;5003700;28;20050;-67
2023/04/13 08:09:20;;;;;;;14.85;3.08;;;5.80;99.90;;;4.74;100.00;96640.56;5002830;28;20160;-68
2023/04/13 08:11:48;;;;;;;13.00;1.98;;;5.70;99.90;;;4.73;100.00;96644.88;4998387;28;20058;-66
2023/04/13 08:14:15;;;;;;;17.70;2.47;;;5.70;99.90;;;4.77;100.00;96645.63;5005080;28;20068;-66
2023/04/13 08:16:42;;;;;;;11.57;1.92;;;5.70;99.90;;;4.85;100.00;96671.88;5000323;28;20065;-67
2023/04/13 08:19:09;;;;;;;13.57;2.17;;;5.70;99.90;;;4.92;100.00;96659.66;5007704;28;20092;-67
2023/04/13 08:21:40;;;;;;;12.07;2.15;;;5.70;99.90;;;5.02;100.00;96659.28;5010764;28;20068;-67
2023/04/13 08:24:08;;;;;;;11.07;2.05;;;5.70;99.90;;;4.98;100.00;96674.88;5009070;28;20817;-67
2023/04/13 08:26:35;;;;;;;15.52;3.70;;;5.70;99.90;;;5.04;100.00;96669.53;5004523;28;20069;-67
2023/04/13 08:29:02;;;;;;;13.68;2.22;;;5.80;99.90;;;4.96;100.00;96672.34;5003854;28;20058;-67
2023/04/13 08:31:31;;;;;;;12.07;2.30;;;5.80;99.90;;;5.18;100.00;96676.78;5008148;28;20046;-67
2023/04/13 08:33:58;;;;;;;16.23;2.78;;;5.90;99.90;;;5.09;100.00;96671.94;5006641;28;20065;-67
2023/04/13 08:36:26;;;;;;;16.33;2.67;;;5.90;99.90;;;5.18;100.00;96680.16;5004201;28;20085;-67
2023/04/13 08:38:53;;;;;;;11.15;2.15;;;5.90;99.90;;;5.11;100.00;96683.00;5008801;28;20139;-66
2023/04/13 08:41:21;;;;;;;14.35;3.33;;;5.90;99.90;;;5.10;100.00;96691.63;5005618;28;20050;-67
2023/04/13 08:43:49;;;;;;;14.60;2.60;;;5.90;99.90;;;5.07;100.00;96702.84;5007803;28;20057;-66
2023/04/13 08:46:21;;;;;;;14.32;2.45;;;5.90;99.90;;;5.11;100.00;96681.28;5005829;28;20049;-67
2023/04/13 08:48:51;;;;;;;11.55;2.47;;;5.90;99.90;;;5.18;100.00;96690.47;5006784;28;20064;-66
2023/04/13 08:51:21;;;;;;;15.98;2.70;;;6.00;99.90;;;5.41;100.00;96684.50;5002414;28;20049;-67
2023/04/13 08:53:52;;;;;;;10.63;2.80;;;6.10;99.90;;;5.39;100.00;96690.59;5007713;28;20100;-67
2023/04/13 08:56:19;;;;;;;12.23;2.65;;;6.00;99.90;;;5.36;100.00;96704.41;5006178;28;20046;-66
2023/04/13 08:59:07;;;;;;;14.35;2.45;;;6.10;99.90;;;5.40;100.00;96702.56;5004826;28;20046;-66
2023/04/13 09:01:38;;;;;;;14.15;3.13;;;6.10;99.90;;;5.44;100.00;96706.69;5007979;28;20092;-67
2023/04/13 09:04:07;;;;;;;16.40;3.42;;;6.20;99.90;;;5.58;100.00;96695.91;5001301;28;20084;-67
2023/04/13 09:06:40;;;;;;;18.35;3.55;;;6.20;99.90;;;5.36;100.00;96699.25;5002621;28;20046;-66
2023/04/13 09:09:15;;;;;;;16.27;2.28;;;6.30;99.90;;;5.43;100.00;96698.16;5005654;28;20070;-66
2023/04/13 09:11:44;;;;;;;17.63;2.92;;;6.20;99.90;;;5.45;100.00;96704.09;5004934;28;20136;-68
2023/04/13 09:14:12;;;;;;;15.20;2.80;;;6.30;99.90;;;5.82;100.00;96689.84;5004966;28;20050;-66
2023/04/13 09:16:40;;;;;;;14.20;2.50;;;6.50;99.90;;;5.84;100.00;96700.94;5003706;28;20057;-66
2023/04/13 09:19:09;;;;;;;14.40;3.13;;;6.40;99.90;;;5.98;100.00;96690.13;5004566;28;20049;-66
2023/04/13 09:21:44;;;;;;;12.45;2.38;;;6.50;99.90;;;5.82;100.00;96689.00;5005826;28;20045;-66
2023/04/13 09:24:11;;;;;;;12.68;3.47;;;6.60;99.90;;;5.74;100.00;96678.16;5007321;28;20054;-66
2023/04/13 09:26:49;;;;;;;9.50;2.55;;;6.50;99.90;;;5.78;100.00;96688.28;5001185;28;20058;-67
2023/04/13 09:29:18;;;;;;;17.55;3.53;;;6.50;99.90;;;5.96;100.00;96701.38;5004270;28;20070;-67
2023/04/13 09:31:46;;;;;;;13.70;3.20;;;6.60;99.90;;;6.05;100.00;96703.63;5006748;28;20056;-67
2023/04/13 09:34:25;;;;;;;15.02;3.33;;;6.60;99.90;;;6.16;100.00;96698.88;4998683;28;20069;-67
2023/04/13 09:36:53;;;;;;;15.65;3.72;;;6.60;99.90;;;6.40;100.00;96703.97;5002795;28;20054;-67
2023/04/13 09:39:27;;;;;;;16.58;3.13;;;6.80;99.90;;;6.44;100.00;96696.03;5006168;28;20514;-67
2023/04/13 09:41:55;;;;;;;18.23;3.42;;;6.90;99.90;;;6.25;100.00;96687.38;4998363;28;20083;-67
2023/04/13 09:44:23;;;;;;;15.40;3.47;;;7.00;99.90;;;6.52;100.00;96694.88;5000110;28;20137;-67
2023/04/13 09:46:57;;;;;;;16.27;2.42;;;6.90;99.90;;;6.51;100.00;96688.06;5001644;28;20050;-67
2023/04/13 09:49:25;;;;;;;14.82;3.00;;;7.00;99.90;;;6.39;100.00;96700.56;5001656;28;20183;-67
2023/04/13 09:51:54;;;;;;;11.25;2.08;;;6.90;99.90;;;6.34;100.00;96699.03;5002404;28;20049;-67
2023/04/13 09:59:14;;;;;;;14.05;2.92;;;7.00;99.90;;;5.63;100.00;96706.84;5000065;28;20072;-67
2023/04/13 10:01:42;;;;;;;16.48;3.17;;;6.60;99.90;;;5.78;100.00;96723.50;5003621;28;20046;-67
2023/04/13 10:04:09;;;;;;;19.27;3.25;;;6.50;99.90;;;5.66;100.00;96712.75;5002161;28;20112;-66
2023/04/13 10:06:38;;;;;;;15.35;3.50;;;6.50;99.90;;;5.74;100.00;96730.47;5001101;28;20049;-67
2023/04/13 10:09:06;;;;;;;23.75;3.70;;;6.40;99.90;;;6.13;100.00;96716.19;5004245;28;20060;-67
2023/04/13 10:14:23;;;;;;;15.68;3.22;;;6.60;99.90;;;6.41;100.00;96731.41;5053401;28;20436;-67
2023/04/13 10:17:31;;;;;;;23.35;3.38;;;7.10;99.90;;;6.63;100.00;96741.72;5041129;28;20076;-66
2023/04/13 10:20:12;;;;;;;18.42;3.28;;;7.30;99.90;;;6.78;100.00;96707.56;5035047;28;20049;-66
2023/04/13 10:22:43;;;;;;;11.32;2.65;;;7.30;99.90;;;6.62;100.00;96716.84;5038195;28;20133;-66
2023/04/13 10:25:14;;;;;;;19.90;3.65;;;7.20;99.90;;;6.47;100.00;96719.09;5037309;28;20057;-66
2023/04/13 10:27:59;;;;;;;23.00;4.45;;;7.20;99.90;;;6.66;100.00;96703.75;5039804;28;20140;-66
2023/04/13 10:30:27;;;;;;;20.40;3.50;;;7.20;99.90;;;6.54;100.00;96695.66;5036801;28;20076;-67
2023/04/13 10:33:02;;;;;;;23.13;3.80;;;7.10;99.90;;;6.45;100.00;96697.75;5037178;28;20037;-69
2023/04/13 10:35:29;;;;;;;19.35;3.58;;;7.20;99.90;;;6.23;100.00;96690.00;5037292;28;20108;-70
2023/04/13 10:37:57;;;;;;;17.40;3.05;;;7.10;99.90;;;6.16;100.00;96726.38;5031662;28;20045;-69
2023/04/13 10:40:24;;;;;;;8.93;1.60;;;7.00;99.90;;;5.88;100.00;96729.97;5034040;28;20080;-68